Météo aviation pour un terrain ou une ville
Choisir un ou une

Vous pouvez entrer RAPIDEMENT les premières lettres pour sélectionner

Aéroport choisi : LFCK - CASTRES - MAZAMET
Visibilité


5000 m

Soleil : Lever à 08:08 Coucher à 17:11
Durée du jour : 9h 3 (-2 minute(s))
Date et heure locale 01/12/2020 04:08
Il fait nuit
Distance Terre - Lune : 399987 kms

Phase actuelle: Pleine lune
Température
Pression
Humidité
Force du vent
Direction du vent
Temps présent
Brume

Ensoleillement : 10 %
Heure d'observation : 2020/12/01 04:00. Soit il y a 0 H 8 mn
Décodage METAR, TAF et désign par Philippe Guiraud
METAR : 2020/12/01 03:00 LFCK 010300Z AUTO 36002KT 5000 BR FEW004 BKN017 BKN024 02/02 Q1027
Prévisions (décodage des TAF)
Pas de prévisions (TAF) pour cette station
Historique pour les derniéres 24 heures
Carte satellite actuelle
Satellite Image